Time;durP1;ratioP1;P1;durP2;ratioP2;P2;SDS_P1;SDS_P2;PMS_P1;PMS_P2;Temp;Humidity;BMP_temperature;BMP_pressure;BME280_temperature;BME280_humidity;BME280_pressure;Samples;Min_cycle;Max_cycle;Signal;HPM_P1;HPM_P2
2022/03/15 00:00:54;;;;;;;17.25;6.53;;;5.00;99.90;;;;;;5053117;28;20083;-46
2022/03/15 00:03:21;;;;;;;16.30;6.30;;;5.10;99.90;;;;;;5052927;28;20460;-46
2022/03/15 00:05:46;;;;;;;16.38;6.20;;;5.00;99.90;;;;;;5070800;28;20045;-47
2022/03/15 00:08:12;;;;;;;13.55;6.32;;;5.00;99.90;;;;;;5072980;28;20043;-46
2022/03/15 00:10:38;;;;;;;21.15;7.20;;;4.90;99.90;;;;;;5054983;28;20040;-46
2022/03/15 00:13:07;;;;;;;25.05;7.72;;;5.00;99.90;;;;;;5073186;28;20066;-46
2022/03/15 00:15:34;;;;;;;17.65;7.78;;;5.00;99.90;;;;;;5073135;28;20048;-46
2022/03/15 00:17:59;;;;;;;19.10;7.95;;;5.10;99.90;;;;;;5072714;28;20055;-46
2022/03/15 00:20:25;;;;;;;19.92;7.35;;;5.00;99.90;;;;;;5072715;28;20044;-47
2022/03/15 00:22:55;;;;;;;19.73;8.07;;;5.10;99.90;;;;;;5072839;28;20061;-46
2022/03/15 00:25:21;;;;;;;22.50;7.63;;;5.10;99.90;;;;;;5072637;28;20128;-46
2022/03/15 00:27:52;;;;;;;20.83;9.88;;;5.10;99.90;;;;;;5073037;28;20036;-46
2022/03/15 00:30:20;;;;;;;22.42;7.50;;;5.10;99.90;;;;;;5072477;28;20052;-46
2022/03/15 00:32:47;;;;;;;19.48;8.15;;;5.10;99.90;;;;;;5072510;28;20047;-47
2022/03/15 00:35:19;;;;;;;24.23;8.38;;;5.00;99.90;;;;;;5072678;28;20041;-48
2022/03/15 00:37:45;;;;;;;;;;;5.00;99.90;;;;;;5072899;28;20526;-52
2022/03/15 00:40:15;;;;;;;15.90;6.88;;;5.00;99.90;;;;;;5072468;28;20014;-46
2022/03/15 00:42:49;;;;;;;16.20;8.65;;;4.90;99.90;;;;;;5071367;28;20500;-50
2022/03/15 00:45:15;;;;;;;21.85;8.73;;;5.00;99.90;;;;;;5072412;28;20033;-48
2022/03/15 00:47:41;;;;;;;18.52;7.95;;;5.00;99.90;;;;;;5072330;28;20047;-50
2022/03/15 00:50:07;;;;;;;18.70;7.85;;;5.00;99.90;;;;;;5072433;28;20032;-47
2022/03/15 00:52:33;;;;;;;18.17;7.78;;;5.00;99.90;;;;;;5072303;28;20040;-49
2022/03/15 00:54:58;;;;;;;21.92;9.57;;;4.90;99.90;;;;;;5072700;28;20106;-47
2022/03/15 00:57:24;;;;;;;22.13;7.85;;;4.90;99.90;;;;;;5072424;28;20040;-47
2022/03/15 00:59:50;;;;;;;18.80;7.18;;;4.90;99.90;;;;;;5072293;28;20040;-49
2022/03/15 01:02:16;;;;;;;14.60;6.65;;;4.80;99.90;;;;;;5071000;28;20047;-50
2022/03/15 01:04:42;;;;;;;20.63;7.32;;;4.80;99.90;;;;;;5063058;28;20041;-51
2022/03/15 01:07:07;;;;;;;17.67;6.97;;;4.80;99.90;;;;;;5052413;28;20045;-48
2022/03/15 01:09:35;;;;;;;19.83;7.90;;;4.80;99.90;;;;;;5052333;28;20044;-50
2022/03/15 01:12:01;;;;;;;16.23;6.88;;;4.80;99.90;;;;;;5052028;28;20044;-51
2022/03/15 01:14:27;;;;;;;15.88;7.50;;;4.70;99.90;;;;;;5052358;28;20076;-50
2022/03/15 01:16:55;;;;;;;16.63;8.02;;;4.60;99.90;;;;;;5055398;28;20044;-46
2022/03/15 01:19:22;;;;;;;19.92;7.38;;;4.70;99.90;;;;;;5056148;28;20591;-48
2022/03/15 01:21:48;;;;;;;18.13;7.45;;;4.60;99.90;;;;;;5056396;28;20155;-47
2022/03/15 01:24:13;;;;;;;17.02;6.57;;;4.50;99.90;;;;;;5055947;28;20622;-48
2022/03/15 01:26:39;;;;;;;17.20;7.80;;;4.50;99.90;;;;;;5055988;28;20082;-49
2022/03/15 01:29:05;;;;;;;21.38;7.30;;;4.50;99.90;;;;;;5055859;28;20172;-46
2022/03/15 01:31:32;;;;;;;14.52;7.15;;;4.50;99.90;;;;;;5056052;28;20041;-47
2022/03/15 01:33:57;;;;;;;19.30;7.72;;;4.50;99.90;;;;;;5054908;28;20045;-47
2022/03/15 01:36:23;;;;;;;18.85;8.40;;;4.40;99.90;;;;;;5055936;28;20176;-49
2022/03/15 01:38:50;;;;;;;17.40;7.35;;;4.50;99.90;;;;;;5054447;28;20151;-47
2022/03/15 01:41:16;;;;;;;20.02;8.05;;;4.50;99.90;;;;;;5056062;28;20127;-47
2022/03/15 01:43:42;;;;;;;21.88;8.70;;;4.40;99.90;;;;;;5055990;28;20064;-48
2022/03/15 01:46:07;;;;;;;16.45;7.45;;;4.40;99.90;;;;;;5055449;28;20048;-49
2022/03/15 01:48:34;;;;;;;19.08;8.32;;;4.50;99.90;;;;;;5055591;28;20037;-47
2022/03/15 01:51:00;;;;;;;16.67;9.18;;;4.50;99.90;;;;;;5055546;28;20450;-47
2022/03/15 01:53:26;;;;;;;18.30;8.55;;;4.40;99.90;;;;;;5055564;28;20509;-46
2022/03/15 01:55:52;;;;;;;18.23;8.27;;;4.30;99.90;;;;;;5055716;28;20045;-47
2022/03/15 01:58:18;;;;;;;17.05;8.18;;;4.50;99.90;;;;;;5055429;28;20044;-48
2022/03/15 02:00:46;;;;;;;17.02;8.07;;;4.30;99.90;;;;;;5055610;28;20041;-49
2022/03/15 02:03:12;;;;;;;22.00;8.50;;;4.30;99.90;;;;;;5055553;28;20099;-46
2022/03/15 02:05:38;;;;;;;22.40;9.10;;;4.30;99.90;;;;;;5055755;28;20547;-52
2022/03/15 02:08:12;;;;;;;17.33;8.50;;;4.30;99.90;;;;;;5055170;28;20033;-48
2022/03/15 02:10:38;;;;;;;19.02;9.32;;;4.30;99.90;;;;;;5055501;28;20095;-47
2022/03/15 02:13:03;;;;;;;22.65;8.98;;;4.40;99.90;;;;;;5055357;28;20037;-46
2022/03/15 02:15:29;;;;;;;18.92;9.55;;;4.40;99.90;;;;;;5055409;28;20041;-46
2022/03/15 02:17:55;;;;;;;19.38;8.55;;;4.50;99.90;;;;;;5055317;28;20044;-47
2022/03/15 02:20:22;;;;;;;20.48;9.18;;;4.50;99.90;;;;;;5055299;28;20045;-47
2022/03/15 02:22:47;;;;;;;20.73;9.57;;;4.50;99.90;;;;;;5055283;28;20045;-47
2022/03/15 02:25:13;;;;;;;17.23;9.80;;;4.50;99.90;;;;;;5055073;28;20094;-46
2022/03/15 02:27:39;;;;;;;21.90;9.38;;;4.60;99.90;;;;;;5053513;28;20037;-47
2022/03/15 02:30:06;;;;;;;20.45;8.98;;;4.60;99.90;;;;;;5054584;28;20565;-47
2022/03/15 02:32:33;;;;;;;20.25;9.98;;;4.70;99.90;;;;;;5055069;28;20374;-46
2022/03/15 02:34:58;;;;;;;22.95;10.00;;;4.70;99.90;;;;;;5054824;28;20056;-47
2022/03/15 02:37:24;;;;;;;22.05;10.43;;;4.80;99.90;;;;;;5053755;28;20045;-47
2022/03/15 02:39:50;;;;;;;24.00;10.70;;;4.80;99.90;;;;;;5054807;28;20044;-48
2022/03/15 02:42:17;;;;;;;19.55;9.10;;;4.80;99.90;;;;;;5054793;28;20094;-47
2022/03/15 02:44:43;;;;;;;22.70;10.05;;;4.90;99.90;;;;;;5053267;28;20045;-47
2022/03/15 02:47:08;;;;;;;22.48;8.88;;;4.90;99.90;;;;;;5053196;28;20043;-47
2022/03/15 02:49:34;;;;;;;19.88;9.57;;;5.00;99.90;;;;;;5054463;28;20086;-47
2022/03/15 02:52:00;;;;;;;24.63;9.75;;;4.90;99.90;;;;;;5054387;28;20501;-48
2022/03/15 02:54:26;;;;;;;21.35;10.18;;;5.00;99.90;;;;;;5054211;28;20053;-47
2022/03/15 02:56:51;;;;;;;18.85;9.68;;;5.00;99.90;;;;;;5054457;28;20123;-47
2022/03/15 02:59:17;;;;;;;17.27;10.32;;;5.00;99.90;;;;;;5054544;28;20040;-47
2022/03/15 03:01:44;;;;;;;26.75;10.73;;;5.10;99.90;;;;;;5054441;28;20052;-47
2022/03/15 03:04:10;;;;;;;21.33;11.80;;;5.10;99.90;;;;;;5055980;28;20048;-47
2022/03/15 03:06:37;;;;;;;26.20;10.98;;;5.10;99.90;;;;;;5054452;28;20037;-47
2022/03/15 03:09:03;;;;;;;20.95;10.85;;;5.20;99.90;;;;;;5054468;28;20041;-49
2022/03/15 03:11:29;;;;;;;20.95;11.00;;;5.10;99.90;;;;;;5054425;28;20029;-47
2022/03/15 03:13:57;;;;;;;27.25;11.73;;;5.20;99.90;;;;;;5054161;28;20078;-47
2022/03/15 03:16:24;;;;;;;19.90;10.60;;;5.20;99.90;;;;;;5054092;28;20055;-48
2022/03/15 03:18:52;;;;;;;22.05;11.63;;;5.20;99.90;;;;;;5053875;28;20033;-47
2022/03/15 03:21:18;;;;;;;20.85;12.38;;;5.30;99.90;;;;;;5053722;28;20041;-48
2022/03/15 03:23:43;;;;;;;20.67;10.95;;;5.20;99.90;;;;;;5054055;28;20048;-51
2022/03/15 03:26:09;;;;;;;21.33;10.88;;;5.30;99.90;;;;;;5053839;28;20051;-50
2022/03/15 03:28:38;;;;;;;20.40;10.70;;;5.40;99.90;;;;;;5052789;28;20045;-46
2022/03/15 03:31:09;;;;;;;23.65;12.10;;;5.30;99.90;;;;;;5053507;28;20128;-48
2022/03/15 03:33:35;;;;;;;22.13;11.38;;;5.30;99.90;;;;;;5053969;28;20374;-48
2022/03/15 03:36:02;;;;;;;21.70;10.65;;;5.30;99.90;;;;;;5053686;28;20512;-51
2022/03/15 03:38:28;;;;;;;17.73;10.82;;;5.40;99.90;;;;;;5052738;28;20045;-48
2022/03/15 03:40:54;;;;;;;19.50;10.85;;;5.30;99.90;;;;;;5053648;28;20084;-51
2022/03/15 03:43:21;;;;;;;24.50;12.02;;;5.40;99.90;;;;;;5053595;28;20494;-49
2022/03/15 03:45:46;;;;;;;25.77;11.50;;;5.30;99.90;;;;;;5053592;28;20037;-48
2022/03/15 03:48:12;;;;;;;22.63;10.85;;;5.40;99.90;;;;;;5053368;28;20048;-50
2022/03/15 03:50:39;;;;;;;19.77;10.85;;;5.50;99.90;;;;;;5053403;28;20037;-48
2022/03/15 03:53:06;;;;;;;20.30;10.77;;;5.50;99.90;;;;;;5053481;28;20041;-48
2022/03/15 03:55:32;;;;;;;24.05;11.00;;;5.60;99.90;;;;;;5053314;28;20117;-48
2022/03/15 03:57:58;;;;;;;23.23;11.50;;;5.50;99.90;;;;;;5052024;28;20041;-48
2022/03/15 04:00:23;;;;;;;25.33;11.38;;;5.50;99.90;;;;;;5053374;28;20052;-48
2022/03/15 04:02:50;;;;;;;19.10;11.25;;;5.50;99.90;;;;;;5053109;28;20102;-47
2022/03/15 04:05:16;;;;;;;22.10;11.70;;;5.50;99.90;;;;;;5053536;28;20619;-48
2022/03/15 04:07:43;;;;;;;20.02;10.88;;;5.50;99.90;;;;;;5053042;28;20112;-47
2022/03/15 04:10:09;;;;;;;23.30;11.93;;;5.40;99.90;;;;;;5068471;28;20037;-47
2022/03/15 04:12:39;;;;;;;19.63;10.90;;;5.40;99.90;;;;;;5053178;28;20036;-47
2022/03/15 04:15:05;;;;;;;17.85;11.02;;;5.50;99.90;;;;;;5053106;28;20041;-47
2022/03/15 04:17:32;;;;;;;21.90;11.05;;;5.50;99.90;;;;;;5051592;28;20048;-47
2022/03/15 04:19:57;;;;;;;26.13;11.75;;;5.50;99.90;;;;;;5053179;28;20045;-48
2022/03/15 04:22:23;;;;;;;19.95;11.25;;;5.60;99.90;;;;;;5053041;28;20043;-47
2022/03/15 04:24:49;;;;;;;18.48;11.65;;;5.50;99.90;;;;;;5051767;28;20523;-47
2022/03/15 04:27:15;;;;;;;18.85;10.93;;;5.60;99.90;;;;;;5052682;28;20043;-47
2022/03/15 04:29:42;;;;;;;26.65;11.50;;;5.60;99.90;;;;;;5052557;28;20061;-47
2022/03/15 04:32:09;;;;;;;22.95;12.10;;;5.60;99.90;;;;;;5052538;28;20477;-47
2022/03/15 04:34:34;;;;;;;29.33;12.57;;;5.60;99.90;;;;;;5052779;28;20041;-47
2022/03/15 04:37:00;;;;;;;25.83;13.18;;;5.60;99.90;;;;;;5052676;28;20047;-47
2022/03/15 04:39:26;;;;;;;25.77;12.95;;;5.60;99.90;;;;;;5051219;28;20114;-46
2022/03/15 04:41:51;;;;;;;20.88;11.50;;;5.70;99.90;;;;;;5052374;28;20057;-47
2022/03/15 04:44:18;;;;;;;23.50;12.73;;;5.70;99.90;;;;;;5052343;28;20079;-47
2022/03/15 04:46:44;;;;;;;20.35;12.52;;;5.70;99.90;;;;;;5052330;28;20529;-47
2022/03/15 04:49:10;;;;;;;26.42;13.13;;;5.80;99.90;;;;;;5052485;28;20041;-47
2022/03/15 04:51:36;;;;;;;24.67;12.93;;;5.70;99.90;;;;;;5052645;28;20049;-48
2022/03/15 04:54:02;;;;;;;22.98;12.05;;;5.70;99.90;;;;;;5051231;28;20055;-47
2022/03/15 04:56:27;;;;;;;24.15;12.82;;;5.80;99.90;;;;;;5052440;28;20112;-47
2022/03/15 04:58:53;;;;;;;25.23;13.57;;;5.70;99.90;;;;;;5052187;28;20121;-47
2022/03/15 05:01:19;;;;;;;24.75;13.52;;;5.80;99.90;;;;;;5052524;28;20040;-49
2022/03/15 05:03:45;;;;;;;23.95;12.27;;;5.80;99.90;;;;;;5054177;28;20055;-47
2022/03/15 05:06:10;;;;;;;27.20;13.77;;;5.80;99.90;;;;;;5051905;28;20045;-47
2022/03/15 05:08:36;;;;;;;31.90;15.10;;;5.80;99.90;;;;;;5052073;28;20048;-47
2022/03/15 05:11:08;;;;;;;26.90;15.23;;;5.80;99.90;;;;;;5052215;28;20063;-46
2022/03/15 05:13:44;;;;;;;28.02;15.18;;;5.90;99.90;;;;;;5052297;28;20064;-47
2022/03/15 05:16:12;;;;;;;27.92;14.45;;;6.00;99.90;;;;;;5052067;28;20565;-47
2022/03/15 05:18:40;;;;;;;27.35;14.52;;;5.90;99.90;;;;;;5052128;28;20045;-47
2022/03/15 05:21:07;;;;;;;28.58;15.07;;;5.90;99.90;;;;;;5052000;28;20120;-47
2022/03/15 05:23:33;;;;;;;25.88;15.90;;;5.90;99.90;;;;;;5051868;28;20066;-47
2022/03/15 05:25:59;;;;;;;25.95;14.85;;;5.90;99.90;;;;;;5052093;28;20182;-47
2022/03/15 05:28:24;;;;;;;25.65;14.70;;;5.90;99.90;;;;;;5052181;28;20120;-47
2022/03/15 05:30:50;;;;;;;30.80;15.15;;;5.90;99.90;;;;;;5051942;28;20142;-48
2022/03/15 05:33:16;;;;;;;25.77;14.73;;;5.90;99.90;;;;;;5052025;28;20494;-47
2022/03/15 05:35:42;;;;;;;26.75;15.60;;;5.90;99.90;;;;;;5051870;28;20129;-47
2022/03/15 05:38:09;;;;;;;23.75;15.15;;;5.90;99.90;;;;;;5051711;28;20045;-48
2022/03/15 05:40:35;;;;;;;25.40;14.85;;;5.80;99.90;;;;;;5051800;28;20068;-47
2022/03/15 05:43:01;;;;;;;31.55;16.00;;;5.80;99.90;;;;;;5051990;28;20048;-48
2022/03/15 05:45:27;;;;;;;29.88;16.30;;;5.80;99.90;;;;;;5051824;28;20393;-47
2022/03/15 05:47:54;;;;;;;27.27;15.25;;;5.90;99.90;;;;;;5052002;28;20090;-51
2022/03/15 05:50:20;;;;;;;31.25;16.35;;;5.90;99.90;;;;;;5051768;28;20044;-48
2022/03/15 05:52:46;;;;;;;34.65;15.65;;;5.80;99.90;;;;;;5051838;28;20037;-48
2022/03/15 05:55:12;;;;;;;29.08;16.27;;;5.90;99.90;;;;;;5051568;28;20124;-48
2022/03/15 05:57:38;;;;;;;28.20;16.85;;;5.80;99.90;;;;;;5051759;28;20052;-48
2022/03/15 06:00:06;;;;;;;31.23;17.40;;;5.80;99.90;;;;;;5051704;28;20124;-48
2022/03/15 06:02:32;;;;;;;29.02;16.08;;;5.70;99.90;;;;;;5053701;28;20045;-51
2022/03/15 06:04:59;;;;;;;29.23;16.50;;;5.80;99.90;;;;;;5056242;28;20051;-50
2022/03/15 06:07:26;;;;;;;30.80;16.27;;;5.80;99.90;;;;;;5055298;28;20037;-49
2022/03/15 06:09:52;;;;;;;31.30;16.38;;;5.80;99.90;;;;;;5055164;28;20540;-51
2022/03/15 06:12:20;;;;;;;33.45;16.65;;;5.80;99.90;;;;;;5053857;28;20049;-47
2022/03/15 06:14:47;;;;;;;29.15;16.20;;;5.80;99.90;;;;;;5054403;28;20513;-50
2022/03/15 06:17:13;;;;;;;29.38;16.90;;;5.90;99.90;;;;;;5054522;28;20095;-49
2022/03/15 06:19:38;;;;;;;29.30;16.35;;;5.80;99.90;;;;;;5054370;28;20045;-50
2022/03/15 06:22:04;;;;;;;30.42;17.35;;;5.80;99.90;;;;;;5054535;28;20412;-50
2022/03/15 06:24:30;;;;;;;32.25;17.98;;;5.90;99.90;;;;;;5053016;28;20051;-50
2022/03/15 06:26:57;;;;;;;30.42;16.40;;;5.90;99.90;;;;;;5052958;28;20052;-50
2022/03/15 06:29:23;;;;;;;31.42;17.83;;;6.00;99.90;;;;;;5054216;28;20045;-54
2022/03/15 06:31:49;;;;;;;27.48;15.90;;;6.00;99.90;;;;;;5054045;28;20106;-51
2022/03/15 06:34:15;;;;;;;28.73;17.00;;;5.90;99.90;;;;;;5053858;28;20032;-49
2022/03/15 06:36:41;;;;;;;32.83;17.00;;;6.00;99.90;;;;;;5052539;28;20114;-53
2022/03/15 06:39:07;;;;;;;32.67;17.20;;;5.90;99.90;;;;;;5053815;28;20036;-50
2022/03/15 06:41:37;;;;;;;30.38;16.98;;;6.00;99.90;;;;;;5054136;28;20132;-54
2022/03/15 06:44:03;;;;;;;31.85;16.25;;;6.10;99.90;;;;;;5053998;28;20052;-50
2022/03/15 06:46:30;;;;;;;31.63;16.63;;;6.10;99.90;;;;;;5053833;28;20072;-50
2022/03/15 06:48:55;;;;;;;27.00;16.17;;;6.00;99.90;;;;;;5053717;28;20048;-49
2022/03/15 06:51:21;;;;;;;30.90;15.25;;;6.00;99.90;;;;;;5054201;28;20040;-49
2022/03/15 06:53:47;;;;;;;32.92;16.55;;;6.00;99.90;;;;;;5053458;28;20556;-52
2022/03/15 06:56:13;;;;;;;33.30;16.40;;;6.00;99.90;;;;;;5053413;28;20093;-49
2022/03/15 06:58:38;;;;;;;33.58;18.05;;;6.00;99.90;;;;;;5052185;28;20048;-49
2022/03/15 07:01:04;;;;;;;28.98;16.48;;;6.00;99.90;;;;;;5053774;28;20045;-48
2022/03/15 07:03:30;;;;;;;33.28;16.88;;;6.10;99.90;;;;;;5054736;28;20512;-50
2022/03/15 07:05:55;;;;;;;31.52;16.08;;;6.00;99.90;;;;;;5054192;28;20497;-51
2022/03/15 07:08:21;;;;;;;27.95;16.42;;;6.10;99.90;;;;;;5053516;28;20469;-49
2022/03/15 07:10:47;;;;;;;27.48;15.52;;;6.00;99.90;;;;;;5053373;28;20396;-50
2022/03/15 07:13:12;;;;;;;32.35;17.23;;;6.10;99.90;;;;;;5052109;28;20037;-49
2022/03/15 07:15:38;;;;;;;32.38;16.60;;;6.20;99.90;;;;;;5053042;28;20513;-48
2022/03/15 07:18:04;;;;;;;29.75;17.02;;;6.20;99.90;;;;;;5053234;28;20041;-50
2022/03/15 07:20:30;;;;;;;31.40;16.45;;;6.30;99.90;;;;;;5052742;28;20056;-49
2022/03/15 07:22:56;;;;;;;26.15;16.50;;;6.20;99.90;;;;;;5053065;28;20155;-51
2022/03/15 07:25:22;;;;;;;32.30;16.23;;;6.20;99.90;;;;;;5052848;28;20481;-52
2022/03/15 07:27:48;;;;;;;35.22;18.52;;;6.40;99.90;;;;;;5053233;28;20148;-48
2022/03/15 07:30:14;;;;;;;29.50;17.40;;;6.40;99.90;;;;;;5052427;28;20057;-49
2022/03/15 07:32:40;;;;;;;28.40;17.77;;;6.40;99.90;;;;;;5053052;28;20044;-50
2022/03/15 07:35:06;;;;;;;33.13;18.20;;;6.40;99.90;;;;;;5052626;28;20056;-49
2022/03/15 07:37:32;;;;;;;31.55;16.75;;;6.50;99.90;;;;;;5052970;28;20037;-49
2022/03/15 07:39:58;;;;;;;36.58;16.77;;;6.50;99.90;;;;;;5052820;28;20485;-50
2022/03/15 07:42:25;;;;;;;31.65;17.10;;;6.50;99.90;;;;;;5061027;28;20045;-50
2022/03/15 07:44:51;;;;;;;31.35;17.77;;;6.50;99.90;;;;;;5062573;28;20048;-50
2022/03/15 07:47:16;;;;;;;36.95;18.05;;;6.50;99.90;;;;;;5063056;28;20033;-49
2022/03/15 07:49:42;;;;;;;30.05;17.92;;;6.50;99.90;;;;;;5061100;28;20036;-50
2022/03/15 07:52:10;;;;;;;31.90;18.58;;;6.60;99.90;;;;;;5063138;28;20035;-49
2022/03/15 07:54:36;;;;;;;34.40;18.70;;;6.60;99.90;;;;;;5057236;28;20040;-53
2022/03/15 07:57:02;;;;;;;34.63;20.25;;;6.60;99.90;;;;;;5062538;28;20473;-53
2022/03/15 07:59:28;;;;;;;33.28;19.90;;;6.50;99.90;;;;;;5062273;28;20052;-50
2022/03/15 08:01:54;;;;;;;39.85;20.35;;;6.70;99.90;;;;;;5063067;28;20159;-50
2022/03/15 08:04:19;;;;;;;36.72;20.63;;;6.70;99.90;;;;;;5062456;28;20032;-50
2022/03/15 08:06:45;;;;;;;40.38;21.42;;;6.80;99.90;;;;;;5056470;28;20032;-51
2022/03/15 08:09:11;;;;;;;33.88;19.95;;;6.90;99.90;;;;;;5052429;28;20044;-51
2022/03/15 08:11:37;;;;;;;34.08;22.67;;;6.90;99.90;;;;;;5052150;28;20495;-49
2022/03/15 08:14:03;;;;;;;35.53;20.92;;;7.10;99.90;;;;;;5052307;28;20059;-51
2022/03/15 08:16:29;;;;;;;36.60;21.75;;;7.10;99.90;;;;;;5052324;28;20037;-50
2022/03/15 08:18:55;;;;;;;38.83;21.23;;;7.20;99.90;;;;;;5052286;28;20036;-53
2022/03/15 08:21:22;;;;;;;39.65;22.70;;;7.20;99.90;;;;;;5051453;28;20041;-51
2022/03/15 08:23:49;;;;;;;40.45;21.67;;;7.30;99.90;;;;;;5052669;28;20130;-50
2022/03/15 08:26:15;;;;;;;38.42;22.20;;;7.30;99.90;;;;;;5052353;28;20052;-49
2022/03/15 08:28:43;;;;;;;45.00;22.60;;;7.30;99.90;;;;;;5052577;28;20072;-51
2022/03/15 08:31:08;;;;;;;57.05;23.25;;;7.40;99.90;;;;;;5052344;28;20056;-50
2022/03/15 08:33:34;;;;;;;40.22;22.88;;;7.40;99.90;;;;;;5052713;28;20040;-52
2022/03/15 08:36:00;;;;;;;40.15;22.85;;;7.50;99.90;;;;;;5051085;28;20089;-51
2022/03/15 08:38:26;;;;;;;39.78;22.85;;;7.50;99.90;;;;;;5052798;28;20083;-53
2022/03/15 08:40:52;;;;;;;39.25;24.77;;;7.60;99.90;;;;;;5052410;28;20124;-50
2022/03/15 08:43:18;;;;;;;37.95;22.42;;;7.60;99.90;;;;;;5052324;28;20041;-49
2022/03/15 08:45:44;;;;;;;37.63;23.05;;;7.70;99.90;;;;;;5052312;28;20107;-50
2022/03/15 08:48:10;;;;;;;40.40;21.35;;;7.70;99.90;;;;;;5054257;28;20434;-51
2022/03/15 08:50:36;;;;;;;39.70;22.05;;;7.80;99.90;;;;;;5071982;28;20111;-51
2022/03/15 08:53:02;;;;;;;36.55;22.40;;;7.90;99.90;;;;;;5070960;28;20115;-50
2022/03/15 08:55:28;;;;;;;40.83;23.70;;;8.00;99.90;;;;;;5072150;28;20051;-51
2022/03/15 08:57:54;;;;;;;42.25;23.35;;;8.10;99.90;;;;;;5072161;28;20044;-52
2022/03/15 09:00:21;;;;;;;41.00;22.33;;;8.10;99.90;;;;;;5072077;28;20504;-53
2022/03/15 09:02:46;;;;;;;42.03;22.98;;;8.10;99.90;;;;;;5071215;28;20052;-53
2022/03/15 09:05:13;;;;;;;40.25;22.98;;;8.20;99.90;;;;;;5058653;28;20036;-49
2022/03/15 09:07:41;;;;;;;38.70;23.40;;;8.20;99.90;;;;;;5052099;28;20040;-53
2022/03/15 09:10:07;;;;;;;38.05;22.88;;;8.20;99.90;;;;;;5052144;28;20033;-53
2022/03/15 09:12:34;;;;;;;42.17;24.73;;;8.30;99.90;;;;;;5051075;28;20388;-50
2022/03/15 09:15:00;;;;;;;37.75;23.23;;;8.30;99.90;;;;;;5051990;28;20048;-49
2022/03/15 09:17:25;;;;;;;39.08;23.33;;;8.30;99.90;;;;;;5055568;28;20052;-49
2022/03/15 09:19:51;;;;;;;67.18;24.63;;;8.40;99.90;;;;;;5069003;28;20048;-49
2022/03/15 09:22:17;;;;;;;37.40;21.45;;;8.40;99.90;;;;;;5072177;28;20120;-54
2022/03/15 09:24:43;;;;;;;40.15;21.95;;;8.40;99.90;;;;;;5071970;28;20044;-52
2022/03/15 09:27:09;;;;;;;43.67;23.15;;;8.40;99.90;;;;;;5072375;28;20024;-52
2022/03/15 09:29:36;;;;;;;36.42;22.00;;;8.60;99.90;;;;;;5071295;28;20051;-52
2022/03/15 09:32:04;;;;;;;37.25;22.20;;;8.60;99.90;;;;;;5059357;28;20120;-50
2022/03/15 09:34:30;;;;;;;37.42;20.88;;;8.80;99.90;;;;;;5051965;28;20049;-53
2022/03/15 09:36:59;;;;;;;34.95;21.50;;;8.80;99.90;;;;;;5052217;28;20053;-52
2022/03/15 09:39:25;;;;;;;36.38;21.55;;;8.90;99.90;;;;;;5055934;28;20037;-51
2022/03/15 09:41:53;;;;;;;35.17;22.83;;;9.00;99.90;;;;;;5055744;28;20103;-54
2022/03/15 09:44:20;;;;;;;35.60;22.52;;;8.90;99.90;;;;;;5055907;28;20051;-52
2022/03/15 09:46:51;;;;;;;33.75;21.75;;;8.90;99.90;;;;;;5055608;28;20486;-51
2022/03/15 09:49:19;;;;;;;36.08;21.20;;;9.10;99.90;;;;;;5054364;28;20045;-53
2022/03/15 09:51:47;;;;;;;36.72;21.92;;;9.00;99.90;;;;;;5055654;28;20040;-50
2022/03/15 09:54:14;;;;;;;38.63;21.75;;;9.00;99.90;;;;;;5055559;28;20043;-49
2022/03/15 09:56:41;;;;;;;34.90;22.25;;;9.00;99.90;;;;;;5055385;28;20076;-50
2022/03/15 09:59:16;;;;;;;39.03;22.83;;;9.10;99.90;;;;;;5055667;28;20047;-53
2022/03/15 10:01:50;;;;;;;35.78;21.60;;;9.10;99.90;;;;;;5054208;28;20037;-53
2022/03/15 10:04:16;;;;;;;33.75;21.00;;;9.10;99.90;;;;;;5055799;28;20045;-54
2022/03/15 10:06:42;;;;;;;35.15;22.38;;;9.20;99.90;;;;;;5055276;28;20044;-54
2022/03/15 10:09:09;;;;;;;34.47;21.45;;;9.10;99.90;;;;;;5055487;28;20037;-49
2022/03/15 10:11:36;;;;;;;36.60;23.20;;;9.20;99.90;;;;;;5055302;28;20033;-49
2022/03/15 10:14:04;;;;;;;36.70;23.30;;;9.20;99.90;;;;;;5054244;28;20044;-49
2022/03/15 10:16:43;;;;;;;35.33;21.90;;;9.10;99.90;;;;;;5055096;28;20090;-49
2022/03/15 10:19:13;;;;;;;30.80;20.63;;;9.20;99.90;;;;;;5054940;28;20769;-50
2022/03/15 10:21:45;;;;;;;32.67;21.98;;;9.30;99.90;;;;;;5054905;28;20090;-49
2022/03/15 10:24:13;;;;;;;35.42;22.58;;;9.50;99.90;;;;;;5054853;28;20106;-50
2022/03/15 10:26:40;;;;;;;37.22;22.33;;;9.50;99.90;;;;;;5053679;28;20079;-49
2022/03/15 10:29:07;;;;;;;34.95;22.23;;;9.50;99.90;;;;;;5054995;28;20072;-50
2022/03/15 10:31:34;;;;;;;33.67;21.05;;;9.60;99.90;;;;;;5054534;28;20049;-50
2022/03/15 10:34:03;;;;;;;36.25;22.08;;;9.70;99.90;;;;;;5055093;28;20045;-49
2022/03/15 10:36:40;;;;;;;31.65;20.92;;;9.70;99.90;;;;;;5053515;28;20053;-49
2022/03/15 10:39:07;;;;;;;33.33;21.42;;;9.60;99.90;;;;;;5054775;28;20561;-51
2022/03/15 10:41:53;;;;;;;32.80;19.63;;;9.60;99.90;;;;;;5054831;28;20373;-50
2022/03/15 10:44:20;;;;;;;29.73;17.80;;;9.70;99.90;;;;;;5053231;28;20489;-51
2022/03/15 10:46:57;;;;;;;32.50;20.00;;;9.70;99.90;;;;;;5054770;28;20098;-50
2022/03/15 10:49:23;;;;;;;28.58;19.33;;;9.70;99.90;;;;;;5054516;28;20040;-51
2022/03/15 10:51:49;;;;;;;30.05;19.40;;;9.70;99.90;;;;;;5053237;28;20033;-49
2022/03/15 10:54:15;;;;;;;32.72;20.63;;;9.70;99.90;;;;;;5054536;28;20048;-52
2022/03/15 10:56:50;;;;;;;32.47;19.30;;;9.70;99.90;;;;;;5054371;28;20052;-49
2022/03/15 10:59:16;;;;;;;30.17;19.48;;;9.80;99.90;;;;;;5053368;28;20041;-51
2022/03/15 11:01:42;;;;;;;31.15;19.80;;;9.90;99.90;;;;;;5054439;28;20443;-53
2022/03/15 11:04:10;;;;;;;30.48;19.42;;;9.90;99.90;;;;;;5056086;28;20048;-50
2022/03/15 11:06:38;;;;;;;31.40;20.17;;;10.00;99.90;;;;;;5054219;28;20059;-53
2022/03/15 11:09:23;;;;;;;30.83;19.13;;;9.90;99.90;;;;;;5063208;28;20531;-50
2022/03/15 11:12:05;;;;;;;32.25;20.27;;;10.00;99.90;;;;;;5060756;28;20370;-51
2022/03/15 11:14:41;;;;;;;30.83;19.80;;;10.00;99.90;;;;;;5068699;28;20120;-50
2022/03/15 11:17:26;;;;;;;28.60;18.80;;;9.90;99.90;;;;;;5073953;28;20056;-49
2022/03/15 11:19:57;;;;;;;33.38;18.80;;;10.00;99.90;;;;;;5074218;28;20388;-49
2022/03/15 11:22:26;;;;;;;29.42;18.92;;;10.00;99.90;;;;;;5074229;28;20044;-50
2022/03/15 11:25:11;;;;;;;30.10;19.05;;;10.00;99.90;;;;;;5073944;28;20051;-49
2022/03/15 11:27:42;;;;;;;32.78;19.55;;;10.00;99.90;;;;;;5073964;28;20036;-50
2022/03/15 11:30:14;;;;;;;28.02;19.10;;;10.00;99.90;;;;;;5072220;28;20056;-49
2022/03/15 11:32:40;;;;;;;29.20;20.63;;;10.10;99.90;;;;;;5073967;28;20040;-50
2022/03/15 11:35:08;;;;;;;27.23;18.85;;;10.20;99.90;;;;;;5073582;28;20045;-49
2022/03/15 11:37:35;;;;;;;24.67;17.33;;;10.10;99.90;;;;;;5073364;28;20048;-48
2022/03/15 11:40:04;;;;;;;27.25;17.20;;;10.20;99.90;;;;;;5073465;28;20488;-49
2022/03/15 11:42:32;;;;;;;26.85;17.02;;;10.10;99.90;;;;;;5073450;28;20036;-48
2022/03/15 11:45:23;;;;;;;23.88;14.43;;;10.20;99.90;;;;;;5073193;28;20048;-48
2022/03/15 11:48:29;;;;;;;20.33;12.73;;;10.20;99.90;;;;;;5073553;28;20040;-48
2022/03/15 11:51:19;;;;;;;17.35;9.43;;;10.20;99.90;;;;;;5073572;28;20033;-48
2022/03/15 11:53:56;;;;;;;17.80;8.27;;;10.20;99.90;;;;;;5073483;28;20437;-49
2022/03/15 11:56:49;;;;;;;10.32;5.90;;;10.10;99.90;;;;;;5073101;28;20040;-49
2022/03/15 11:59:16;;;;;;;12.18;5.82;;;10.20;99.90;;;;;;5072523;28;20114;-48
2022/03/15 12:01:49;;;;;;;10.45;5.03;;;10.30;99.90;;;;;;5073359;28;20040;-49
2022/03/15 12:04:17;;;;;;;13.23;6.50;;;10.30;99.90;;;;;;5067687;28;20099;-48
2022/03/15 12:06:54;;;;;;;13.35;5.85;;;10.20;99.90;;;;;;5053293;28;20114;-48
2022/03/15 12:09:26;;;;;;;10.20;4.43;;;10.20;99.90;;;;;;5053374;28;20535;-48
2022/03/15 12:12:03;;;;;;;11.70;4.43;;;10.20;99.90;;;;;;5053030;28;20087;-48
2022/03/15 12:14:40;;;;;;;14.38;4.90;;;10.10;99.90;;;;;;5053048;28;20041;-48
2022/03/15 12:17:07;;;;;;;9.55;3.92;;;10.10;99.90;;;;;;5051876;28;20045;-49
2022/03/15 12:19:47;;;;;;;8.93;3.90;;;10.10;99.90;;;;;;5052741;28;20436;-48
2022/03/15 12:22:27;;;;;;;9.05;3.50;;;10.10;99.90;;;;;;5052872;28;20041;-48
2022/03/15 12:25:09;;;;;;;11.32;4.50;;;10.10;99.90;;;;;;5052750;28;20037;-48
2022/03/15 12:27:40;;;;;;;12.32;4.97;;;10.00;99.90;;;;;;5052787;28;20046;-49
2022/03/15 12:30:08;;;;;;;10.90;3.92;;;10.00;99.90;;;;;;5052459;28;20131;-49
2022/03/15 12:32:34;;;;;;;11.80;5.57;;;9.90;99.90;;;;;;5052672;28;20064;-50
2022/03/15 12:35:00;;;;;;;11.40;4.55;;;10.00;99.90;;;;;;5052549;28;20501;-49
2022/03/15 12:37:39;;;;;;;9.73;3.53;;;10.00;99.90;;;;;;5052487;28;20049;-50
2022/03/15 12:40:10;;;;;;;15.77;5.28;;;10.00;99.90;;;;;;5051530;28;20123;-49